Time;durP1;ratioP1;P1;durP2;ratioP2;P2;SDS_P1;SDS_P2;PMS_P1;PMS_P2;Temp;Humidity;BMP_temperature;BMP_pressure;BME280_temperature;BME280_humidity;BME280_pressure;Samples;Min_cycle;Max_cycle;Signal;HPM_P1;HPM_P2
2022/12/27 00:04:00;;;;;;;5.20;2.70;;;23.10;55.40;;;;;;211955;1305;22505;-55
2022/12/27 00:09:05;;;;;;;5.20;2.80;;;23.00;55.60;;;;;;212536;1296;22486;-55
2022/12/27 00:14:10;;;;;;;5.60;2.50;;;22.90;55.60;;;;;;211504;1315;228742;-54
2022/12/27 00:19:14;;;;;;;7.00;2.20;;;22.90;56.00;;;;;;212108;1313;24246;-56
2022/12/27 00:24:18;;;;;;;5.30;2.30;;;22.80;56.20;;;;;;212157;1312;25375;-55
2022/12/27 00:29:22;;;;;;;5.90;2.20;;;22.70;57.00;;;;;;212110;1316;22616;-56
2022/12/27 00:34:26;;;;;;;5.00;2.10;;;22.60;56.50;;;;;;212087;1304;24451;-56
2022/12/27 00:39:30;;;;;;;4.90;2.10;;;22.60;56.80;;;;;;212101;1310;22530;-55
2022/12/27 00:44:34;;;;;;;5.20;2.30;;;22.50;56.70;;;;;;212098;1303;24697;-53
2022/12/27 00:49:38;;;;;;;7.30;2.20;;;22.50;56.90;;;;;;211991;1299;22606;-55
2022/12/27 00:54:42;;;;;;;8.00;2.20;;;22.40;57.00;;;;;;212092;1295;25382;-54
2022/12/27 00:59:46;;;;;;;5.80;2.20;;;22.40;57.00;;;;;;212062;1317;22599;-56
2022/12/27 01:04:52;;;;;;;4.30;2.50;;;22.30;57.00;;;;;;212120;1314;24329;-55
2022/12/27 01:09:56;;;;;;;3.60;2.00;;;22.30;57.20;;;;;;212030;1302;22729;-57
2022/12/27 01:15:00;;;;;;;6.40;2.20;;;22.20;57.00;;;;;;211862;1315;23895;-54
2022/12/27 01:20:05;;;;;;;6.30;2.30;;;22.20;57.20;;;;;;211964;1310;22497;-56
2022/12/27 01:25:09;;;;;;;5.50;2.10;;;22.20;57.50;;;;;;213678;1293;22522;-55
2022/12/27 01:30:13;;;;;;;7.00;2.10;;;22.10;57.20;;;;;;212168;1304;22792;-54
2022/12/27 01:35:17;;;;;;;5.90;2.10;;;22.10;57.30;;;;;;211854;1299;22483;-55
2022/12/27 01:40:21;;;;;;;4.00;2.00;;;22.00;57.20;;;;;;212093;1312;22496;-55
2022/12/27 01:45:28;;;;;;;5.00;2.30;;;22.00;57.60;;;;;;212078;1303;24325;-55
2022/12/27 01:50:44;;;;;;;5.10;2.20;;;21.90;57.60;;;;;;212087;1317;22614;-57
2022/12/27 01:56:00;;;;;;;5.60;1.90;;;21.90;57.70;;;;;;211875;1301;23666;-55
2022/12/27 02:01:07;;;;;;;4.10;2.30;;;21.90;57.90;;;;;;212061;1310;24051;-56
2022/12/27 02:06:13;;;;;;;3.00;1.60;;;21.90;58.00;;;;;;212232;1299;22588;-52
2022/12/27 02:11:49;;;;;;;3.40;1.70;;;21.80;58.00;;;;;;212062;1299;22511;-54
2022/12/27 02:16:48;;;;;;;3.30;1.80;;;21.80;58.10;;;;;;211979;1298;23635;-57
2022/12/27 02:22:25;;;;;;;4.30;1.70;;;21.70;58.10;;;;;;212238;1304;22490;-56
2022/12/27 02:28:12;;;;;;;3.70;1.90;;;21.80;58.30;;;;;;211985;1299;22561;-55
2022/12/27 02:33:20;;;;;;;3.90;1.70;;;21.70;58.30;;;;;;211334;1305;22497;-56
2022/12/27 02:38:32;;;;;;;3.70;1.80;;;21.70;58.30;;;;;;212238;1294;24244;-57
2022/12/27 02:54:36;;;;;;;3.40;1.80;;;21.60;58.50;;;;;;212055;1309;22525;-55
2022/12/27 03:16:54;;;;;;;5.80;1.50;;;21.50;58.70;;;;;;212077;1298;22552;-54
2022/12/27 03:27:35;;;;;;;3.20;1.70;;;21.40;59.10;;;;;;212141;1310;23904;-56
2022/12/27 03:38:12;;;;;;;2.80;1.30;;;21.50;58.80;;;;;;212077;1300;23880;-56
2022/12/27 03:43:16;;;;;;;3.70;1.50;;;21.90;58.00;;;;;;212189;1303;22482;-56
2022/12/27 03:48:23;;;;;;;3.20;1.40;;;22.20;57.50;;;;;;211967;1300;22531;-57
2022/12/27 03:53:40;;;;;;;2.60;1.50;;;22.40;57.00;;;;;;211998;1309;24087;-56
2022/12/27 03:58:44;;;;;;;2.70;1.40;;;22.50;56.80;;;;;;212128;1312;22486;-55
2022/12/27 04:03:48;;;;;;;3.00;1.30;;;22.70;56.40;;;;;;211680;1306;22550;-54
2022/12/27 04:35:46;;;;;;;3.30;1.50;;;23.10;55.10;;;;;;211909;1309;22547;-54
2022/12/27 04:57:10;;;;;;;3.30;1.30;;;23.30;54.80;;;;;;212087;1306;22585;-55
2022/12/27 05:02:17;;;;;;;2.30;1.40;;;23.20;54.90;;;;;;212187;1308;22460;-56
2022/12/27 05:18:07;;;;;;;6.60;1.70;;;23.00;55.30;;;;;;212187;1315;25459;-55
2022/12/27 05:28:34;;;;;;;4.20;1.30;;;22.80;55.80;;;;;;212068;1294;23143;-55
2022/12/27 05:33:38;;;;;;;2.20;1.20;;;22.70;56.30;;;;;;212146;1312;22561;-53
2022/12/27 05:38:43;;;;;;;3.10;1.30;;;22.60;56.10;;;;;;211940;1317;22533;-55
2022/12/27 05:43:47;;;;;;;2.00;1.30;;;22.50;56.40;;;;;;212334;1309;26685;-54
2022/12/27 05:48:51;;;;;;;2.80;1.20;;;22.40;56.40;;;;;;212113;1308;22738;-54
2022/12/27 05:53:55;;;;;;;2.00;1.20;;;22.40;56.60;;;;;;212066;1303;22484;-54
2022/12/27 05:59:00;;;;;;;3.00;1.20;;;22.30;57.10;;;;;;212091;1313;23470;-55
2022/12/27 06:04:04;;;;;;;2.30;1.20;;;22.30;56.90;;;;;;212046;1316;22593;-56
2022/12/27 06:09:08;;;;;;;2.40;1.10;;;22.20;57.00;;;;;;212038;1313;22484;-52
2022/12/27 06:14:12;;;;;;;1.80;0.90;;;22.10;57.10;;;;;;212166;1317;22497;-55
2022/12/27 06:19:16;;;;;;;2.70;1.00;;;22.10;57.00;;;;;;212135;1314;25367;-52
2022/12/27 06:24:20;;;;;;;2.60;1.40;;;22.00;57.00;;;;;;212242;1315;24073;-54
2022/12/27 06:29:24;;;;;;;4.50;1.40;;;22.00;57.10;;;;;;212058;1306;22989;-55
2022/12/27 06:34:28;;;;;;;2.80;1.10;;;21.90;57.20;;;;;;212148;1316;22478;-55
2022/12/27 06:39:33;;;;;;;2.60;1.20;;;21.90;57.10;;;;;;212142;1307;26490;-54
2022/12/27 06:44:36;;;;;;;2.10;1.10;;;21.80;57.20;;;;;;212093;1303;22813;-56
2022/12/27 06:49:41;;;;;;;1.90;1.10;;;21.80;57.30;;;;;;212132;1305;22504;-56
2022/12/27 06:54:45;;;;;;;2.00;1.00;;;21.80;57.30;;;;;;212167;1302;22495;-56
2022/12/27 06:59:49;;;;;;;2.30;1.30;;;21.80;57.80;;;;;;212108;1303;22553;-53
2022/12/27 07:04:56;;;;;;;3.50;1.40;;;21.70;57.60;;;;;;212044;1306;24410;-56
2022/12/27 07:10:00;;;;;;;2.60;1.20;;;21.70;57.70;;;;;;212106;1315;22531;-55
2022/12/27 07:15:06;;;;;;;2.10;1.10;;;21.60;57.70;;;;;;211842;1309;22473;-52
2022/12/27 07:20:10;;;;;;;3.00;1.00;;;21.60;58.20;;;;;;212153;1312;22490;-54
2022/12/27 07:25:14;;;;;;;3.00;1.20;;;21.60;57.90;;;;;;212235;1309;22628;-53
2022/12/27 07:30:18;;;;;;;2.60;1.20;;;21.50;58.00;;;;;;212068;1312;25972;-54
2022/12/27 07:35:23;;;;;;;1.50;0.90;;;21.50;58.00;;;;;;211970;1295;25282;-53
2022/12/27 07:40:27;;;;;;;2.60;1.20;;;21.50;57.80;;;;;;212103;1310;26174;-55
2022/12/27 07:45:31;;;;;;;2.50;1.20;;;21.80;57.70;;;;;;212116;1305;23812;-56
2022/12/27 07:50:35;;;;;;;2.00;1.00;;;22.10;56.60;;;;;;212086;1300;24285;-56
2022/12/27 07:55:40;;;;;;;2.60;1.40;;;22.40;55.90;;;;;;212040;1310;24240;-53
2022/12/27 08:00:45;;;;;;;3.30;1.10;;;22.60;55.70;;;;;;212313;1299;22496;-54
2022/12/27 08:05:53;;;;;;;2.00;1.10;;;22.90;55.20;;;;;;212034;1303;22483;-57
2022/12/27 08:10:57;;;;;;;2.90;1.00;;;23.00;54.50;;;;;;212040;1303;24250;-56
2022/12/27 08:16:19;;;;;;;5.30;1.00;;;23.20;54.20;;;;;;212176;1309;22564;-55
2022/12/27 08:21:23;;;;;;;5.20;1.10;;;23.20;54.20;;;;;;212105;1303;24301;-56
2022/12/27 08:26:27;;;;;;;3.30;1.10;;;23.40;54.30;;;;;;211975;1300;24253;-55
2022/12/27 08:31:32;;;;;;;4.40;1.10;;;23.40;53.90;;;;;;212021;1311;26825;-56
2022/12/27 08:36:36;;;;;;;6.70;1.20;;;23.50;54.00;;;;;;211940;1315;25281;-55
2022/12/27 08:42:00;;;;;;;16.00;1.20;;;23.50;53.90;;;;;;212002;1308;22562;-56
2022/12/27 08:47:04;;;;;;;2.70;1.00;;;23.40;54.20;;;;;;212092;1302;22647;-56
2022/12/27 08:52:08;;;;;;;2.00;1.10;;;23.30;54.80;;;;;;212097;1310;22487;-55
2022/12/27 08:57:12;;;;;;;3.00;1.10;;;23.20;54.90;;;;;;212057;1310;24085;-55
2022/12/27 09:02:16;;;;;;;2.70;1.20;;;23.10;54.40;;;;;;212095;1292;24473;-54
2022/12/27 09:07:20;;;;;;;2.10;1.00;;;23.10;54.60;;;;;;212181;1315;22471;-55
2022/12/27 09:12:24;;;;;;;5.80;1.50;;;23.00;54.80;;;;;;211946;1315;22492;-57
2022/12/27 09:17:28;;;;;;;2.90;1.00;;;23.00;55.20;;;;;;212101;1302;22485;-58
2022/12/27 09:22:33;;;;;;;5.00;0.90;;;23.00;55.60;;;;;;212153;1302;22495;-54
2022/12/27 09:27:38;;;;;;;2.50;1.20;;;23.00;55.30;;;;;;212039;1300;23374;-55
2022/12/27 09:32:42;;;;;;;6.10;1.20;;;23.00;55.10;;;;;;212150;1287;24793;-54
2022/12/27 09:37:46;;;;;;;2.70;1.00;;;23.00;55.00;;;;;;212171;1311;22666;-54
2022/12/27 09:43:17;;;;;;;41.00;3.40;;;22.90;54.80;;;;;;211931;1312;22458;-52
2022/12/27 09:48:37;;;;;;;4.20;1.20;;;22.90;54.70;;;;;;212068;1290;22497;-54
2022/12/27 09:53:57;;;;;;;5.70;1.20;;;23.00;54.20;;;;;;212013;1312;22489;-55
2022/12/27 09:59:28;;;;;;;6.90;1.60;;;22.80;54.90;;;;;;212066;1290;22771;-54
2022/12/27 10:04:35;;;;;;;10.90;1.20;;;22.80;55.70;;;;;;212024;1300;24291;-53
2022/12/27 10:10:31;;;;;;;10.60;1.30;;;22.80;55.10;;;;;;212017;1299;22587;-55
2022/12/27 10:15:47;;;;;;;2.90;1.20;;;22.80;55.10;;;;;;211996;1307;22614;-55
2022/12/27 10:20:54;;;;;;;9.90;1.90;;;22.70;55.20;;;;;;211955;1302;22736;-52
2022/12/27 10:26:05;;;;;;;7.30;1.40;;;22.60;55.20;;;;;;211852;1295;24268;-54
2022/12/27 10:31:30;;;;;;;6.00;1.40;;;22.60;55.60;;;;;;211823;1303;22608;-56
2022/12/27 10:36:36;;;;;;;8.90;1.20;;;22.60;54.80;;;;;;212179;1310;22530;-55
2022/12/27 10:42:28;;;;;;;5.30;1.60;;;22.60;54.80;;;;;;211788;1316;24407;-54
2022/12/27 10:47:33;;;;;;;7.40;1.50;;;22.70;54.50;;;;;;212113;1294;24399;-56
2022/12/27 10:52:38;;;;;;;3.60;1.10;;;22.70;54.30;;;;;;212061;1312;25331;-56
2022/12/27 10:57:42;;;;;;;7.40;1.50;;;22.80;54.30;;;;;;212039;1311;22614;-51
2022/12/27 11:02:52;;;;;;;2.90;1.50;;;22.80;54.00;;;;;;211760;1303;22507;-56
2022/12/27 11:07:58;;;;;;;3.90;1.30;;;22.80;54.60;;;;;;211397;1296;24252;-56
2022/12/27 11:13:03;;;;;;;6.40;1.60;;;22.80;53.70;;;;;;212007;1298;25489;-54
2022/12/27 11:18:24;;;;;;;4.70;1.20;;;22.80;53.80;;;;;;213014;1302;27157;-60
2022/12/27 11:23:43;;;;;;;5.10;1.80;;;22.90;53.80;;;;;;212433;1302;22645;-59
2022/12/27 11:28:53;;;;;;;348.00;119.70;;;22.90;53.80;;;;;;212587;1303;22510;-58
2022/12/27 11:34:16;;;;;;;;;;;22.90;53.40;;;;;;212068;1303;22860;-58
2022/12/27 11:39:50;;;;;;;429.10;162.60;;;22.80;53.20;;;;;;212081;1303;23204;-58
2022/12/27 11:45:34;;;;;;;409.80;154.80;;;22.90;53.30;;;;;;211803;1312;23894;-58
2022/12/27 11:50:44;;;;;;;368.80;137.60;;;22.90;53.20;;;;;;212227;1297;22732;-58
2022/12/27 11:56:01;;;;;;;364.00;143.50;;;22.90;53.40;;;;;;212289;1300;24285;-56
2022/12/27 12:01:26;;;;;;;340.90;127.00;;;22.90;53.10;;;;;;212132;1296;24347;-57
2022/12/27 12:06:51;;;;;;;318.70;118.60;;;22.90;52.80;;;;;;211784;1299;22532;-58
2022/12/27 12:12:33;;;;;;;307.20;119.20;;;22.70;53.40;;;;;;211974;1305;204735;-56
2022/12/27 12:18:00;;;;;;;288.80;120.40;;;22.60;53.50;;;;;;212081;1296;22546;-55
2022/12/27 12:23:32;;;;;;;291.60;116.40;;;22.60;53.10;;;;;;212282;1312;23171;-58
2022/12/27 12:28:54;;;;;;;254.40;104.60;;;22.50;52.90;;;;;;212161;1298;22485;-58
2022/12/27 12:34:39;;;;;;;257.20;103.80;;;22.50;53.10;;;;;;212394;1297;24372;-53
2022/12/27 12:39:46;;;;;;;243.60;98.60;;;22.50;53.60;;;;;;212162;1309;22491;-52
2022/12/27 12:45:12;;;;;;;228.60;93.30;;;22.50;53.80;;;;;;211999;1315;24283;-57
2022/12/27 12:50:44;;;;;;;201.90;81.00;;;22.40;52.90;;;;;;212105;1290;24303;-56
2022/12/27 12:56:13;;;;;;;156.20;66.10;;;22.30;52.90;;;;;;212239;1310;22529;-57
2022/12/27 13:01:44;;;;;;;151.80;59.60;;;22.20;52.90;;;;;;212256;1309;25283;-57
2022/12/27 13:07:15;;;;;;;125.50;50.60;;;22.20;52.50;;;;;;212194;1304;22561;-56
2022/12/27 13:12:38;;;;;;;107.60;45.60;;;22.20;52.30;;;;;;212383;1299;24265;-55
2022/12/27 13:18:01;;;;;;;88.90;40.00;;;22.10;52.10;;;;;;212233;1302;22661;-56
2022/12/27 13:23:27;;;;;;;82.30;35.50;;;22.00;51.90;;;;;;212225;1312;22601;-57
2022/12/27 13:28:40;;;;;;;87.70;37.30;;;22.00;52.30;;;;;;212131;1316;22507;-55
2022/12/27 13:33:44;;;;;;;65.60;29.80;;;22.00;52.50;;;;;;212192;1292;22622;-57
2022/12/27 13:39:14;;;;;;;;;;;21.90;52.70;;;;;;212571;1309;25511;-57
2022/12/27 13:44:28;;;;;;;62.10;26.10;;;21.90;52.80;;;;;;212062;1301;22507;-56
2022/12/27 13:49:55;;;;;;;57.00;25.80;;;21.90;53.30;;;;;;212273;1294;24707;-58
2022/12/27 13:55:21;;;;;;;61.00;25.90;;;21.80;53.00;;;;;;212123;1296;22569;-57
2022/12/27 14:00:35;;;;;;;45.00;20.80;;;21.80;53.60;;;;;;212055;1303;25311;-57
2022/12/27 14:06:03;;;;;;;52.70;21.30;;;21.80;53.50;;;;;;212116;1303;23170;-57
2022/12/27 14:11:25;;;;;;;48.10;20.50;;;21.80;53.80;;;;;;212105;1307;25317;-57
2022/12/27 14:16:51;;;;;;;39.60;18.00;;;21.80;53.70;;;;;;212138;1299;23368;-57
2022/12/27 14:22:17;;;;;;;33.50;16.00;;;21.80;53.70;;;;;;211811;1297;24256;-57
2022/12/27 14:28:01;;;;;;;38.80;15.60;;;21.70;53.80;;;;;;212177;1302;25430;-58
2022/12/27 14:33:08;;;;;;;33.80;15.20;;;21.70;54.00;;;;;;212352;1310;24249;-58
2022/12/27 14:38:39;;;;;;;29.40;14.00;;;21.60;54.00;;;;;;212040;1299;24255;-58
2022/12/27 14:44:02;;;;;;;32.70;13.30;;;21.60;54.20;;;;;;212031;1311;22458;-56
2022/12/27 14:49:32;;;;;;;27.60;12.40;;;21.60;54.70;;;;;;212038;1311;23963;-57
2022/12/27 14:55:09;;;;;;;20.50;11.10;;;21.50;54.30;;;;;;212071;1306;25256;-58
2022/12/27 15:00:18;;;;;;;22.80;11.60;;;21.50;54.50;;;;;;211628;1309;22859;-57
2022/12/27 15:05:50;;;;;;;25.90;11.50;;;21.50;54.50;;;;;;211871;1299;22526;-56
2022/12/27 15:11:16;;;;;;;21.20;10.20;;;21.40;54.90;;;;;;211706;1306;22555;-56
2022/12/27 15:16:38;;;;;;;24.20;9.90;;;21.50;54.80;;;;;;211907;1317;25412;-61
2022/12/27 15:21:42;;;;;;;24.10;10.90;;;21.60;56.20;;;;;;212106;1306;25390;-56
2022/12/27 15:27:19;;;;;;;23.60;10.40;;;21.60;55.50;;;;;;212083;1313;26631;-57
2022/12/27 15:32:36;;;;;;;25.40;10.80;;;21.50;56.80;;;;;;212079;1308;25675;-56
2022/12/27 15:37:46;;;;;;;21.70;9.70;;;21.40;57.10;;;;;;212063;1296;22482;-57
2022/12/27 15:42:50;;;;;;;25.60;10.70;;;21.40;57.50;;;;;;212207;1295;24249;-56
2022/12/27 15:48:19;;;;;;;24.90;9.70;;;21.50;57.00;;;;;;212211;1315;22493;-57
2022/12/27 15:53:46;;;;;;;23.70;8.80;;;21.50;56.80;;;;;;212206;1296;23460;-55
2022/12/27 15:59:28;;;;;;;26.30;9.90;;;21.50;56.70;;;;;;212151;1310;22521;-58
2022/12/27 16:04:59;;;;;;;20.50;8.40;;;21.50;56.70;;;;;;212416;1296;22618;-58
2022/12/27 16:10:35;;;;;;;20.90;8.20;;;21.40;56.90;;;;;;212115;1310;22539;-55
2022/12/27 16:15:52;;;;;;;17.20;7.50;;;21.40;56.70;;;;;;212170;1310;22477;-54
2022/12/27 16:21:19;;;;;;;15.20;7.50;;;21.30;56.50;;;;;;212279;1308;24354;-56
2022/12/27 16:26:28;;;;;;;18.00;7.20;;;21.30;55.40;;;;;;212099;1308;22502;-54
2022/12/27 16:31:38;;;;;;;16.90;7.00;;;21.30;55.10;;;;;;212066;1310;23222;-55
2022/12/27 16:36:52;;;;;;;14.80;6.70;;;21.20;54.80;;;;;;211949;1309;23861;-55
2022/12/27 16:42:02;;;;;;;14.00;7.00;;;21.20;54.60;;;;;;212012;1296;25130;-53
2022/12/27 16:47:17;;;;;;;12.00;6.00;;;21.10;54.70;;;;;;212134;1311;24064;-55
2022/12/27 16:52:47;;;;;;;14.90;6.50;;;21.10;54.00;;;;;;212194;1309;24022;-54
2022/12/27 16:58:27;;;;;;;16.20;7.00;;;21.50;52.70;;;;;;212049;1306;22693;-55
2022/12/27 17:03:43;;;;;;;12.10;5.80;;;21.80;52.30;;;;;;212070;1303;22481;-54
2022/12/27 17:09:09;;;;;;;14.00;5.90;;;22.00;51.10;;;;;;211967;1303;25262;-52
2022/12/27 17:14:19;;;;;;;13.00;6.30;;;22.20;50.60;;;;;;211988;1307;23858;-57
2022/12/27 17:19:49;;;;;;;9.50;5.30;;;22.40;50.20;;;;;;212126;1315;25224;-53
2022/12/27 17:24:58;;;;;;;11.30;5.20;;;22.50;49.80;;;;;;211985;1305;22607;-56
2022/12/27 17:30:17;;;;;;;8.30;4.90;;;22.60;49.70;;;;;;212015;1310;25431;-55
2022/12/27 17:35:46;;;;;;;9.00;5.50;;;22.70;49.00;;;;;;211993;1306;22623;-54
2022/12/27 17:41:15;;;;;;;10.50;4.80;;;22.80;48.80;;;;;;211807;1315;23656;-55
2022/12/27 17:46:36;;;;;;;6.50;3.60;;;22.80;48.50;;;;;;212004;1310;22518;-54
2022/12/27 18:02:38;;;;;;;7.70;3.60;;;22.90;47.80;;;;;;212206;1309;22571;-56
2022/12/27 18:07:44;;;;;;;6.50;3.60;;;23.00;48.00;;;;;;212234;1310;23144;-55
2022/12/27 18:12:52;;;;;;;7.40;4.10;;;23.00;47.50;;;;;;212176;1306;24427;-54
2022/12/27 18:18:03;;;;;;;8.60;3.80;;;23.00;47.50;;;;;;211949;1315;25486;-55
2022/12/27 18:23:09;;;;;;;7.00;3.80;;;23.00;47.30;;;;;;211976;1295;24256;-54
2022/12/27 18:28:22;;;;;;;6.90;3.80;;;23.10;47.20;;;;;;211834;1299;22703;-55
2022/12/27 18:33:39;;;;;;;7.40;3.80;;;23.10;47.10;;;;;;212062;1312;22628;-55
2022/12/27 18:38:46;;;;;;;6.10;3.20;;;23.10;46.80;;;;;;212071;1302;23865;-57
2022/12/27 18:43:59;;;;;;;6.30;3.20;;;23.10;46.80;;;;;;212126;1315;24435;-55
2022/12/27 18:49:05;;;;;;;7.60;4.00;;;23.10;46.80;;;;;;211985;1299;22486;-58
2022/12/27 18:54:39;;;;;;;5.40;2.90;;;23.20;46.30;;;;;;212337;1296;23205;-57
2022/12/27 18:59:59;;;;;;;6.00;3.60;;;23.20;46.60;;;;;;210594;1315;22500;-54
2022/12/27 19:05:18;;;;;;;5.30;3.10;;;23.30;46.10;;;;;;210543;1317;22983;-57
2022/12/27 19:10:27;;;;;;;4.60;3.00;;;23.30;46.40;;;;;;210489;1318;22760;-56
2022/12/27 19:15:41;;;;;;;5.70;3.10;;;23.30;46.40;;;;;;210506;1318;25296;-56
2022/12/27 19:21:07;;;;;;;6.60;3.10;;;23.10;46.30;;;;;;210450;1311;22728;-53
2022/12/27 19:26:19;;;;;;;5.70;3.10;;;23.00;46.50;;;;;;210676;1315;26566;-55
2022/12/27 19:31:23;;;;;;;6.00;3.00;;;22.90;46.50;;;;;;210659;1305;22534;-54
2022/12/27 19:36:32;;;;;;;5.30;3.00;;;22.90;46.40;;;;;;211618;1309;22529;-56
2022/12/27 19:41:38;;;;;;;5.70;3.40;;;22.80;47.50;;;;;;212169;1306;22535;-55
2022/12/27 19:46:46;;;;;;;5.40;3.30;;;22.60;47.50;;;;;;212174;1303;22857;-55
2022/12/27 19:51:54;;;;;;;5.60;3.00;;;22.50;47.30;;;;;;212183;1300;22646;-55
2022/12/27 19:56:59;;;;;;;5.10;2.80;;;22.40;47.60;;;;;;212081;1305;22530;-50
2022/12/27 20:02:04;;;;;;;7.50;3.10;;;22.30;47.80;;;;;;212105;1297;22492;-54
2022/12/27 20:07:21;;;;;;;4.70;3.00;;;22.30;47.90;;;;;;212071;1303;24328;-60
2022/12/27 20:12:26;;;;;;;7.90;3.30;;;22.20;47.60;;;;;;212139;1296;24811;-60
2022/12/27 20:17:31;;;;;;;10.50;2.90;;;22.20;48.00;;;;;;212177;1306;25233;-58
2022/12/27 20:22:35;;;;;;;5.00;3.30;;;22.10;48.40;;;;;;212057;1297;23922;-58
2022/12/27 20:27:40;;;;;;;6.90;3.40;;;22.10;48.40;;;;;;211950;1310;22618;-58
2022/12/27 20:32:44;;;;;;;6.10;2.90;;;22.00;48.60;;;;;;211643;1313;22507;-59
2022/12/27 20:37:48;;;;;;;5.40;3.40;;;22.00;49.00;;;;;;211596;1314;22499;-57
2022/12/27 20:42:57;;;;;;;6.40;3.40;;;21.90;49.30;;;;;;211531;1310;24373;-62
2022/12/27 20:48:03;;;;;;;16.50;3.50;;;21.90;49.40;;;;;;211597;1312;24073;-57
2022/12/27 20:53:09;;;;;;;5.90;2.90;;;21.90;49.60;;;;;;211778;1318;22496;-58
2022/12/27 20:58:15;;;;;;;8.10;3.60;;;21.90;50.30;;;;;;211799;1290;22654;-56
2022/12/27 21:03:19;;;;;;;13.00;4.50;;;21.90;52.20;;;;;;211394;1316;22820;-59
2022/12/27 21:08:24;;;;;;;12.70;3.80;;;21.80;52.20;;;;;;211708;1298;22608;-62
2022/12/27 21:13:32;;;;;;;11.90;3.80;;;21.80;54.60;;;;;;211685;1312;22543;-59
2022/12/27 21:18:36;;;;;;;10.90;3.70;;;21.80;55.10;;;;;;211983;1313;26217;-59
2022/12/27 21:23:42;;;;;;;15.70;3.60;;;21.80;55.20;;;;;;212368;1301;25459;-57
2022/12/27 21:28:47;;;;;;;10.60;3.90;;;21.80;55.10;;;;;;212151;1297;24148;-56
2022/12/27 21:33:52;;;;;;;14.80;3.80;;;21.80;55.20;;;;;;212048;1297;22968;-58
2022/12/27 21:38:56;;;;;;;9.80;4.00;;;21.70;55.70;;;;;;212058;1298;22485;-57
2022/12/27 21:44:01;;;;;;;11.90;4.00;;;21.70;55.50;;;;;;211980;1296;24298;-58
2022/12/27 21:49:11;;;;;;;9.90;3.80;;;21.70;55.70;;;;;;212007;1296;22695;-59
2022/12/27 21:54:16;;;;;;;15.70;4.40;;;21.60;55.90;;;;;;211813;1312;22486;-58
2022/12/27 21:59:20;;;;;;;19.10;5.20;;;21.50;56.30;;;;;;211952;1309;25283;-57
2022/12/27 22:04:24;;;;;;;13.90;5.30;;;21.50;56.10;;;;;;211948;1300;23676;-58
2022/12/27 22:09:28;;;;;;;18.20;5.60;;;21.60;58.20;;;;;;212193;1294;22619;-54
2022/12/27 22:14:33;;;;;;;15.00;5.90;;;21.50;58.70;;;;;;211916;1309;22478;-59
2022/12/27 22:19:39;;;;;;;13.90;5.00;;;21.50;58.60;;;;;;211915;1315;25429;-57
2022/12/27 22:24:45;;;;;;;11.20;4.30;;;21.40;58.30;;;;;;211988;1302;24863;-58
2022/12/27 22:29:49;;;;;;;13.60;5.30;;;21.40;58.10;;;;;;211828;1296;22486;-57
2022/12/27 22:34:54;;;;;;;14.80;5.60;;;21.40;58.00;;;;;;212129;1317;22482;-59
2022/12/27 22:40:00;;;;;;;14.50;5.10;;;21.30;57.80;;;;;;211938;1309;22697;-58
2022/12/27 22:45:05;;;;;;;15.90;5.20;;;21.30;57.80;;;;;;211799;1317;22694;-58
2022/12/27 22:50:09;;;;;;;13.10;4.50;;;21.30;57.80;;;;;;211960;1312;24037;-56
2022/12/27 22:55:14;;;;;;;11.00;4.50;;;21.20;57.50;;;;;;212032;1303;22609;-56
2022/12/27 23:00:18;;;;;;;11.70;4.40;;;21.20;57.50;;;;;;211894;1295;24473;-58
2022/12/27 23:05:23;;;;;;;10.60;4.30;;;21.20;57.50;;;;;;212161;1315;23993;-59
2022/12/27 23:10:27;;;;;;;14.90;5.00;;;21.20;57.30;;;;;;212087;1317;25251;-59
2022/12/27 23:15:31;;;;;;;14.10;4.40;;;21.20;57.30;;;;;;212154;1303;22524;-57
2022/12/27 23:20:35;;;;;;;12.70;4.90;;;21.20;57.60;;;;;;212126;1303;22490;-59
2022/12/27 23:25:39;;;;;;;10.20;4.20;;;21.20;56.90;;;;;;212065;1303;22614;-59
2022/12/27 23:30:44;;;;;;;11.90;4.70;;;21.60;56.20;;;;;;212163;1310;22487;-60
2022/12/27 23:35:48;;;;;;;10.10;3.90;;;22.00;55.20;;;;;;212129;1309;24007;-59
2022/12/27 23:41:01;;;;;;;12.00;4.90;;;22.30;54.40;;;;;;212093;1316;22617;-58
2022/12/27 23:46:27;;;;;;;10.70;3.70;;;22.50;54.30;;;;;;211990;1302;24232;-58
2022/12/27 23:51:31;;;;;;;9.10;3.80;;;22.60;53.60;;;;;;212236;1307;22586;-60
2022/12/27 23:56:35;;;;;;;9.70;3.80;;;22.70;53.10;;;;;;212034;1315;25533;-59
